Wednesday, September 17, 2014
01:38 UTC
  |  Log In   |  Register Free
Airport Search:

Talladega Municipal Airport
(KASN)

Talladega Municipal Airport Diagram
No Airport Diagram Available

FAA data valid effective July 24, 2014 until September 18, 2014 (unless otherwise noted).

 
 
 
 
 
 
 
 
 
 
 
 
 
 

Current Aviation Weather for Talladega Municipal Airport (KASN)

The most recent METAR observation for KASN was updated at: 0110
METAR Summary (Translated METAR)
KASN
170055Z AUTO 00000KT 10SM CLR 26/24 A3000 RMK AO2 T02600238
KANB
170053Z AUTO 00000KT 10SM CLR 24/22 A2999 RMK AO2 SLP149 T02440222
(9.7 nm NE from KASN)
KGAD
170055Z 33004KT 10SM CLR 25/19 A2999 RMK AO1
(24.3 nm NW from KASN)
TAF Summary (Translated TAF)
KASN
(9.7 nm SW from KANB)
071720Z 0718/0818 22007KT P6SM SKC FM080100 00000KT P6SM SKC TEMPO 0810/0812 4SM BR FM081500 19007KT P6SM BKN250 AMD NOT SKED
KANB
161909Z 1619/1718 35006KT P6SM BKN040 FM162000 33009KT P6SM VCSH SCT040 BKN100 FM170000 33005KT P6SM SCT100 SCT250 FM170900 33004KT P6SM SCT015 SCT040 TEMPO 1709/1713 5SM BR FM171400 35005KT P6SM SCT250
  Airport Weather Conditions for KASN

Current weather conditions are
not available for ASN


The nearest NOAA weather station
is at ANB, (9.7 nm NE from ASN)
  
 Current Weather at ANB
76° F
Fair
North winds at 0.0 mph
ANB NOAA Radar

Pressure: 29.99 in
Humidity: 88%
Wind: Calm
Dew Point: 72.0°F
Visibility: 10.00 mi


Airport Weather Forecast for KASN

Translated METAR and TAF for KANB
Translated METAR for KANB (0132 UTC 17 September 2014)
found at http://aviationweather.gov/adds/metars/
 
METAR text: KANB 170053Z AUTO 00000KT 10SM CLR 24/22 A2999 RMK AO2 SLP149 T02440222
Conditions at: KANB (ANNISTON , AL, US) observed 0053 UTC 17 September 2014
Temperature: 24.4°C (76°F)
Dewpoint: 22.2°C (72°F) [RH = 88%]
Pressure (altimeter): 29.99 inches Hg (1015.7 mb)
[Sea-level pressure: 1014.9 mb]
Winds: calm
Visibility: 10 or more miles (16+ km)
Ceiling: at least 12,000 feet AGL
Clouds: sky clear below 12,000 feet AGL
Weather: automated observation with no human augmentation;
there may or may not be significant weather present at this time
Translated TAF for KANB
Forecast for: KANB (ANNISTON , AL, US)
TAF Text: KANB 162334Z 1700/1724 34004KT P6SM SCT050 SCT100
Forecast period: 0000 to 1000 UTC 17 September 2014
Forecast type: FROM: standard forecast or significant change
Winds: from the NNW (340 degrees) at 5 MPH (4 knots; 2.1 m/s)
Visibility: 6 or more miles (10+ km)
Clouds: scattered clouds at 5000 feet AGL
scattered clouds at 10000 feet AGL
Weather: no significant weather forecast for this period
TAF Text: FM171000 33004KT P6SM SCT020 BKN040
Forecast period: 1000 to 1400 UTC 17 September 2014
Forecast type: FROM: standard forecast or significant change
Winds: from the NNW (330 degrees) at 5 MPH (4 knots; 2.1 m/s)
Visibility: 6 or more miles (10+ km)
Ceiling: 4000 feet AGL
Clouds: scattered clouds at 2000 feet AGL
broken clouds at 4000 feet AGL
Weather: no significant weather forecast for this period
TAF Text: TEMPO 1710/1713 5SM BR
Forecast period: 1000 to 1300 UTC 17 September 2014
Forecast type: TEMPORARY: The following changes expected for less than half the time period
Visibility: 5 miles (8 km)
Weather: BR  (mist)
TAF Text: FM171400 31006KT P6SM SCT250
Forecast period: 1400 UTC 17 September 2014 to 0000 UTC 18 September 2014
Forecast type: FROM: standard forecast or significant change
Winds: from the NW (310 degrees) at 7 MPH (6 knots; 3.1 m/s)
Visibility: 6 or more miles (10+ km)
Clouds: scattered clouds at 25000 feet AGL
Weather: no significant weather forecast for this period

Find All Airport Services Find A Hotel Find A Rental Car Find A Golf Course Find A Restaurant $100 Hamburger



FBO's on the Field
FBO Company Facility Photos Services Transportation Aviation Fuel Prices: Prices include tax
Catering Weather Repair Courtesy Rental Type 100LL JetA JetA+ MOGAS 8087
 
Talladega Municipal

This FBO has not yet been rated
FS:Texaco
Last Updated: Aug-12
Login to update fuel prices
SS:
Contact Talladega MunicipalMore FBO Information
 
Add another FBO Facility Photos Catering Weather Repair Courtesy Rental Type 100LL JetA JetA+ MOGAS 8087
Services Transportation Aviation Fuel Prices: Prices include tax


model-print
model-print
model-print
model-print